sensor_id;sensor_type;location;lat;lon;timestamp;temperature;humidity
37240;DHT22;23130;48.760;9.178;2023-09-19T00:02:04;16.40;99.90
37240;DHT22;23130;48.760;9.178;2023-09-19T00:04:34;16.40;99.90
37240;DHT22;23130;48.760;9.178;2023-09-19T00:07:00;16.40;99.90
37240;DHT22;23130;48.760;9.178;2023-09-19T00:09:27;16.40;99.90
37240;DHT22;23130;48.760;9.178;2023-09-19T00:11:53;16.40;99.90
37240;DHT22;23130;48.760;9.178;2023-09-19T00:14:19;16.40;99.90
37240;DHT22;23130;48.760;9.178;2023-09-19T00:16:45;16.40;99.90
37240;DHT22;23130;48.760;9.178;2023-09-19T00:19:12;16.30;99.90
37240;DHT22;23130;48.760;9.178;2023-09-19T00:21:39;16.30;99.90
37240;DHT22;23130;48.760;9.178;2023-09-19T00:24:06;16.30;99.90
37240;DHT22;23130;48.760;9.178;2023-09-19T00:26:32;16.20;99.90
37240;DHT22;23130;48.760;9.178;2023-09-19T00:28:57;16.30;99.90
37240;DHT22;23130;48.760;9.178;2023-09-19T00:31:25;16.20;99.90
37240;DHT22;23130;48.760;9.178;2023-09-19T00:33:50;16.20;99.90
37240;DHT22;23130;48.760;9.178;2023-09-19T00:36:18;16.20;99.90
37240;DHT22;23130;48.760;9.178;2023-09-19T00:38:43;16.20;99.90
37240;DHT22;23130;48.760;9.178;2023-09-19T00:41:11;16.20;99.90
37240;DHT22;23130;48.760;9.178;2023-09-19T00:43:38;16.20;99.90
37240;DHT22;23130;48.760;9.178;2023-09-19T00:46:05;16.20;99.90
37240;DHT22;23130;48.760;9.178;2023-09-19T00:48:33;16.10;99.90
37240;DHT22;23130;48.760;9.178;2023-09-19T00:51:04;16.10;99.90
37240;DHT22;23130;48.760;9.178;2023-09-19T00:53:31;16.10;99.90
37240;DHT22;23130;48.760;9.178;2023-09-19T00:55:59;16.10;99.90
37240;DHT22;23130;48.760;9.178;2023-09-19T00:58:26;16.10;99.90
37240;DHT22;23130;48.760;9.178;2023-09-19T01:00:57;16.10;99.90
37240;DHT22;23130;48.760;9.178;2023-09-19T01:03:23;16.10;99.90
37240;DHT22;23130;48.760;9.178;2023-09-19T01:05:49;16.10;99.90
37240;DHT22;23130;48.760;9.178;2023-09-19T01:08:14;16.10;99.90
37240;DHT22;23130;48.760;9.178;2023-09-19T01:10:43;16.10;99.90
37240;DHT22;23130;48.760;9.178;2023-09-19T01:13:17;16.10;99.90
37240;DHT22;23130;48.760;9.178;2023-09-19T01:21:17;16.00;99.90
37240;DHT22;23130;48.760;9.178;2023-09-19T01:31:23;16.00;99.90
37240;DHT22;23130;48.760;9.178;2023-09-19T01:36:37;16.10;99.90
37240;DHT22;23130;48.760;9.178;2023-09-19T01:41:37;16.10;99.90
37240;DHT22;23130;48.760;9.178;2023-09-19T01:44:05;16.10;99.90
37240;DHT22;23130;48.760;9.178;2023-09-19T01:46:35;16.10;99.90
37240;DHT22;23130;48.760;9.178;2023-09-19T01:51:50;16.20;99.90
37240;DHT22;23130;48.760;9.178;2023-09-19T01:54:18;16.20;99.90
37240;DHT22;23130;48.760;9.178;2023-09-19T01:56:50;16.20;99.90
37240;DHT22;23130;48.760;9.178;2023-09-19T01:59:20;16.20;99.90
37240;DHT22;23130;48.760;9.178;2023-09-19T02:01:47;16.20;99.90
37240;DHT22;23130;48.760;9.178;2023-09-19T02:04:13;16.20;99.90
37240;DHT22;23130;48.760;9.178;2023-09-19T02:06:40;16.20;99.90
37240;DHT22;23130;48.760;9.178;2023-09-19T02:09:06;16.20;99.90
37240;DHT22;23130;48.760;9.178;2023-09-19T02:11:32;16.20;99.90
37240;DHT22;23130;48.760;9.178;2023-09-19T02:13:57;16.20;99.90
37240;DHT22;23130;48.760;9.178;2023-09-19T02:16:24;16.10;99.90
37240;DHT22;23130;48.760;9.178;2023-09-19T02:18:50;16.10;99.90
37240;DHT22;23130;48.760;9.178;2023-09-19T02:21:17;16.00;99.90
37240;DHT22;23130;48.760;9.178;2023-09-19T02:23:44;16.00;99.90
37240;DHT22;23130;48.760;9.178;2023-09-19T02:26:09;16.00;99.90
37240;DHT22;23130;48.760;9.178;2023-09-19T02:28:37;15.90;99.90
37240;DHT22;23130;48.760;9.178;2023-09-19T02:31:04;15.90;99.90
37240;DHT22;23130;48.760;9.178;2023-09-19T02:33:31;15.90;99.90
37240;DHT22;23130;48.760;9.178;2023-09-19T02:35:58;15.90;99.90
37240;DHT22;23130;48.760;9.178;2023-09-19T02:38:24;15.80;99.90
37240;DHT22;23130;48.760;9.178;2023-09-19T02:40:54;15.70;99.90
37240;DHT22;23130;48.760;9.178;2023-09-19T02:43:20;15.70;99.90
37240;DHT22;23130;48.760;9.178;2023-09-19T02:45:54;15.60;99.90
37240;DHT22;23130;48.760;9.178;2023-09-19T02:48:19;15.50;99.90
37240;DHT22;23130;48.760;9.178;2023-09-19T02:50:49;15.50;99.90
37240;DHT22;23130;48.760;9.178;2023-09-19T02:53:14;15.40;99.90
37240;DHT22;23130;48.760;9.178;2023-09-19T02:55:40;15.30;99.90
37240;DHT22;23130;48.760;9.178;2023-09-19T02:58:05;15.40;99.90
37240;DHT22;23130;48.760;9.178;2023-09-19T03:00:33;15.40;99.90
37240;DHT22;23130;48.760;9.178;2023-09-19T03:03:02;15.40;99.90
37240;DHT22;23130;48.760;9.178;2023-09-19T03:05:28;15.50;99.90
37240;DHT22;23130;48.760;9.178;2023-09-19T03:07:58;15.60;99.90
37240;DHT22;23130;48.760;9.178;2023-09-19T03:10:26;15.60;99.90
37240;DHT22;23130;48.760;9.178;2023-09-19T03:12:52;15.70;99.90
37240;DHT22;23130;48.760;9.178;2023-09-19T03:15:17;15.80;99.90
37240;DHT22;23130;48.760;9.178;2023-09-19T03:17:44;15.80;99.90
37240;DHT22;23130;48.760;9.178;2023-09-19T03:20:10;15.90;99.90
37240;DHT22;23130;48.760;9.178;2023-09-19T03:22:40;15.90;99.90
37240;DHT22;23130;48.760;9.178;2023-09-19T03:25:06;15.90;99.90
37240;DHT22;23130;48.760;9.178;2023-09-19T03:27:36;15.90;99.90
37240;DHT22;23130;48.760;9.178;2023-09-19T03:30:01;16.00;99.90
37240;DHT22;23130;48.760;9.178;2023-09-19T03:32:32;16.00;99.90
37240;DHT22;23130;48.760;9.178;2023-09-19T03:34:58;16.00;99.90
37240;DHT22;23130;48.760;9.178;2023-09-19T03:37:26;16.00;99.90
37240;DHT22;23130;48.760;9.178;2023-09-19T03:39:52;16.00;99.90
37240;DHT22;23130;48.760;9.178;2023-09-19T03:42:17;16.00;99.90
37240;DHT22;23130;48.760;9.178;2023-09-19T03:44:44;16.00;99.90
37240;DHT22;23130;48.760;9.178;2023-09-19T03:47:09;16.00;99.90
37240;DHT22;23130;48.760;9.178;2023-09-19T03:49:35;16.10;99.90
37240;DHT22;23130;48.760;9.178;2023-09-19T03:52:00;16.00;99.90
37240;DHT22;23130;48.760;9.178;2023-09-19T03:54:28;16.00;99.90
37240;DHT22;23130;48.760;9.178;2023-09-19T03:56:54;16.00;99.90
37240;DHT22;23130;48.760;9.178;2023-09-19T03:59:19;15.90;99.90
37240;DHT22;23130;48.760;9.178;2023-09-19T04:01:45;16.00;99.90
37240;DHT22;23130;48.760;9.178;2023-09-19T04:04:12;15.90;99.90
37240;DHT22;23130;48.760;9.178;2023-09-19T04:06:39;15.90;99.90
37240;DHT22;23130;48.760;9.178;2023-09-19T04:09:05;15.90;99.90
37240;DHT22;23130;48.760;9.178;2023-09-19T04:11:32;15.80;99.90
37240;DHT22;23130;48.760;9.178;2023-09-19T04:14:02;15.70;99.90
37240;DHT22;23130;48.760;9.178;2023-09-19T04:16:28;15.60;99.90
37240;DHT22;23130;48.760;9.178;2023-09-19T04:18:53;15.60;99.90
37240;DHT22;23130;48.760;9.178;2023-09-19T04:21:18;15.50;99.90
37240;DHT22;23130;48.760;9.178;2023-09-19T04:23:44;15.50;99.90
37240;DHT22;23130;48.760;9.178;2023-09-19T04:26:10;15.60;99.90
37240;DHT22;23130;48.760;9.178;2023-09-19T04:28:35;15.60;99.90
37240;DHT22;23130;48.760;9.178;2023-09-19T04:31:04;15.70;99.90
37240;DHT22;23130;48.760;9.178;2023-09-19T04:33:29;15.70;99.90
37240;DHT22;23130;48.760;9.178;2023-09-19T04:35:56;15.70;99.90
37240;DHT22;23130;48.760;9.178;2023-09-19T04:38:21;15.80;99.90
37240;DHT22;23130;48.760;9.178;2023-09-19T04:40:47;15.80;99.90
37240;DHT22;23130;48.760;9.178;2023-09-19T04:43:13;15.80;99.90
37240;DHT22;23130;48.760;9.178;2023-09-19T04:45:39;15.80;99.90
37240;DHT22;23130;48.760;9.178;2023-09-19T04:48:07;15.80;99.90
37240;DHT22;23130;48.760;9.178;2023-09-19T04:50:40;15.80;99.90
37240;DHT22;23130;48.760;9.178;2023-09-19T04:53:06;15.80;99.90
37240;DHT22;23130;48.760;9.178;2023-09-19T04:55:32;15.90;99.90
37240;DHT22;23130;48.760;9.178;2023-09-19T04:57:58;15.80;99.90
37240;DHT22;23130;48.760;9.178;2023-09-19T05:00:23;15.80;99.90
37240;DHT22;23130;48.760;9.178;2023-09-19T05:02:50;15.70;99.90
37240;DHT22;23130;48.760;9.178;2023-09-19T05:05:16;15.70;99.90
37240;DHT22;23130;48.760;9.178;2023-09-19T05:07:45;15.60;99.90
37240;DHT22;23130;48.760;9.178;2023-09-19T05:10:11;15.50;99.90
37240;DHT22;23130;48.760;9.178;2023-09-19T05:12:37;15.50;99.90
37240;DHT22;23130;48.760;9.178;2023-09-19T05:15:03;15.40;99.90
37240;DHT22;23130;48.760;9.178;2023-09-19T05:17:31;15.40;99.90
37240;DHT22;23130;48.760;9.178;2023-09-19T05:19:57;15.40;99.90
37240;DHT22;23130;48.760;9.178;2023-09-19T05:22:26;15.30;99.90
37240;DHT22;23130;48.760;9.178;2023-09-19T05:24:52;15.30;99.90
37240;DHT22;23130;48.760;9.178;2023-09-19T05:27:18;15.30;99.90
37240;DHT22;23130;48.760;9.178;2023-09-19T05:29:44;15.30;99.90
37240;DHT22;23130;48.760;9.178;2023-09-19T05:32:10;15.30;99.90
37240;DHT22;23130;48.760;9.178;2023-09-19T05:34:36;15.30;99.90
37240;DHT22;23130;48.760;9.178;2023-09-19T05:37:01;15.30;99.90
37240;DHT22;23130;48.760;9.178;2023-09-19T05:39:27;15.30;99.90
37240;DHT22;23130;48.760;9.178;2023-09-19T05:41:52;15.30;99.90
37240;DHT22;23130;48.760;9.178;2023-09-19T05:44:20;15.30;99.90
37240;DHT22;23130;48.760;9.178;2023-09-19T05:46:50;15.30;99.90
37240;DHT22;23130;48.760;9.178;2023-09-19T05:49:17;15.30;99.90
37240;DHT22;23130;48.760;9.178;2023-09-19T05:51:43;15.30;99.90
37240;DHT22;23130;48.760;9.178;2023-09-19T05:54:08;15.30;99.90
37240;DHT22;23130;48.760;9.178;2023-09-19T05:56:34;15.30;99.90
37240;DHT22;23130;48.760;9.178;2023-09-19T05:59:00;15.30;99.90
37240;DHT22;23130;48.760;9.178;2023-09-19T06:01:25;15.30;99.90
37240;DHT22;23130;48.760;9.178;2023-09-19T06:03:52;15.20;99.90
37240;DHT22;23130;48.760;9.178;2023-09-19T06:06:18;15.10;99.90
37240;DHT22;23130;48.760;9.178;2023-09-19T06:08:44;15.00;99.90
37240;DHT22;23130;48.760;9.178;2023-09-19T06:11:10;15.00;99.90
37240;DHT22;23130;48.760;9.178;2023-09-19T06:13:36;15.00;99.90
37240;DHT22;23130;48.760;9.178;2023-09-19T06:16:02;14.90;99.90
37240;DHT22;23130;48.760;9.178;2023-09-19T06:18:33;14.90;99.90
37240;DHT22;23130;48.760;9.178;2023-09-19T06:20:59;14.90;99.90
37240;DHT22;23130;48.760;9.178;2023-09-19T06:23:25;14.90;99.90
37240;DHT22;23130;48.760;9.178;2023-09-19T06:25:52;14.90;99.90
37240;DHT22;23130;48.760;9.178;2023-09-19T06:28:18;14.90;99.90
37240;DHT22;23130;48.760;9.178;2023-09-19T06:30:49;14.90;99.90
37240;DHT22;23130;48.760;9.178;2023-09-19T06:33:15;14.90;99.90
37240;DHT22;23130;48.760;9.178;2023-09-19T06:35:40;15.00;99.90
37240;DHT22;23130;48.760;9.178;2023-09-19T06:38:07;15.10;99.90
37240;DHT22;23130;48.760;9.178;2023-09-19T06:40:34;15.20;99.90
37240;DHT22;23130;48.760;9.178;2023-09-19T06:42:59;15.30;99.90
37240;DHT22;23130;48.760;9.178;2023-09-19T06:45:27;15.40;99.90
37240;DHT22;23130;48.760;9.178;2023-09-19T06:47:54;15.60;99.90
37240;DHT22;23130;48.760;9.178;2023-09-19T06:50:23;15.70;99.90
37240;DHT22;23130;48.760;9.178;2023-09-19T06:52:50;15.70;99.90
37240;DHT22;23130;48.760;9.178;2023-09-19T06:55:17;15.70;99.90
37240;DHT22;23130;48.760;9.178;2023-09-19T06:57:45;15.80;99.90
37240;DHT22;23130;48.760;9.178;2023-09-19T07:00:11;15.80;99.90
37240;DHT22;23130;48.760;9.178;2023-09-19T07:02:57;16.00;99.90
37240;DHT22;23130;48.760;9.178;2023-09-19T07:05:24;16.10;99.90
37240;DHT22;23130;48.760;9.178;2023-09-19T07:07:50;16.40;99.90
37240;DHT22;23130;48.760;9.178;2023-09-19T07:10:16;16.70;99.90
37240;DHT22;23130;48.760;9.178;2023-09-19T07:12:41;16.80;99.90
37240;DHT22;23130;48.760;9.178;2023-09-19T07:15:07;17.00;99.90
37240;DHT22;23130;48.760;9.178;2023-09-19T07:17:33;17.00;99.90
37240;DHT22;23130;48.760;9.178;2023-09-19T07:19:59;17.10;99.90
37240;DHT22;23130;48.760;9.178;2023-09-19T07:22:28;17.10;99.90
37240;DHT22;23130;48.760;9.178;2023-09-19T07:24:53;17.20;99.90
37240;DHT22;23130;48.760;9.178;2023-09-19T07:27:19;17.20;99.90
37240;DHT22;23130;48.760;9.178;2023-09-19T07:29:44;17.10;99.90
37240;DHT22;23130;48.760;9.178;2023-09-19T07:32:10;17.10;99.90
37240;DHT22;23130;48.760;9.178;2023-09-19T07:34:37;17.10;99.90
37240;DHT22;23130;48.760;9.178;2023-09-19T07:37:06;17.10;99.90
37240;DHT22;23130;48.760;9.178;2023-09-19T07:39:31;17.10;99.90
37240;DHT22;23130;48.760;9.178;2023-09-19T07:41:57;17.10;99.90
37240;DHT22;23130;48.760;9.178;2023-09-19T07:44:23;17.10;99.90
37240;DHT22;23130;48.760;9.178;2023-09-19T07:46:51;17.30;99.90
37240;DHT22;23130;48.760;9.178;2023-09-19T07:49:17;17.40;99.90
37240;DHT22;23130;48.760;9.178;2023-09-19T07:51:44;17.50;99.90
37240;DHT22;23130;48.760;9.178;2023-09-19T07:54:12;17.60;99.90
37240;DHT22;23130;48.760;9.178;2023-09-19T07:56:38;17.60;99.90
37240;DHT22;23130;48.760;9.178;2023-09-19T07:59:03;17.60;99.90
37240;DHT22;23130;48.760;9.178;2023-09-19T08:01:29;17.50;99.90
37240;DHT22;23130;48.760;9.178;2023-09-19T08:03:54;17.60;99.90
37240;DHT22;23130;48.760;9.178;2023-09-19T08:06:21;17.70;99.90
37240;DHT22;23130;48.760;9.178;2023-09-19T08:08:46;17.70;99.90
37240;DHT22;23130;48.760;9.178;2023-09-19T08:11:12;17.70;99.90
37240;DHT22;23130;48.760;9.178;2023-09-19T08:13:39;17.60;99.90
37240;DHT22;23130;48.760;9.178;2023-09-19T08:16:09;17.60;99.90
37240;DHT22;23130;48.760;9.178;2023-09-19T08:18:35;17.70;99.90
37240;DHT22;23130;48.760;9.178;2023-09-19T08:21:02;17.60;99.90
37240;DHT22;23130;48.760;9.178;2023-09-19T08:23:29;17.60;99.90
37240;DHT22;23130;48.760;9.178;2023-09-19T08:25:57;17.70;99.90
37240;DHT22;23130;48.760;9.178;2023-09-19T08:28:23;17.70;99.90
37240;DHT22;23130;48.760;9.178;2023-09-19T08:30:50;17.70;99.90
37240;DHT22;23130;48.760;9.178;2023-09-19T08:33:18;17.80;99.90
37240;DHT22;23130;48.760;9.178;2023-09-19T08:35:43;17.80;99.90
37240;DHT22;23130;48.760;9.178;2023-09-19T08:38:10;17.90;99.90
37240;DHT22;23130;48.760;9.178;2023-09-19T08:40:39;17.90;99.90
37240;DHT22;23130;48.760;9.178;2023-09-19T08:43:09;18.10;99.90
37240;DHT22;23130;48.760;9.178;2023-09-19T08:45:34;18.20;99.90
37240;DHT22;23130;48.760;9.178;2023-09-19T08:48:04;18.30;99.90
37240;DHT22;23130;48.760;9.178;2023-09-19T08:50:39;18.40;99.90
37240;DHT22;23130;48.760;9.178;2023-09-19T08:53:08;18.40;99.90
37240;DHT22;23130;48.760;9.178;2023-09-19T08:55:36;18.60;99.90
37240;DHT22;23130;48.760;9.178;2023-09-19T08:58:03;18.60;99.90
37240;DHT22;23130;48.760;9.178;2023-09-19T09:00:30;18.70;99.90
37240;DHT22;23130;48.760;9.178;2023-09-19T09:02:56;18.70;99.90
37240;DHT22;23130;48.760;9.178;2023-09-19T09:05:22;18.90;99.90
37240;DHT22;23130;48.760;9.178;2023-09-19T09:07:52;18.90;99.90
37240;DHT22;23130;48.760;9.178;2023-09-19T09:10:18;19.10;99.90
37240;DHT22;23130;48.760;9.178;2023-09-19T09:12:48;19.00;99.90
37240;DHT22;23130;48.760;9.178;2023-09-19T09:15:14;19.00;99.90
37240;DHT22;23130;48.760;9.178;2023-09-19T09:17:42;19.10;99.90
37240;DHT22;23130;48.760;9.178;2023-09-19T09:20:08;19.00;99.90
37240;DHT22;23130;48.760;9.178;2023-09-19T09:22:35;19.00;99.90
37240;DHT22;23130;48.760;9.178;2023-09-19T09:25:02;19.00;99.90
37240;DHT22;23130;48.760;9.178;2023-09-19T09:27:30;19.10;99.90
37240;DHT22;23130;48.760;9.178;2023-09-19T09:29:56;19.10;99.90
37240;DHT22;23130;48.760;9.178;2023-09-19T09:32:29;19.20;99.90
37240;DHT22;23130;48.760;9.178;2023-09-19T09:34:57;19.30;99.90
37240;DHT22;23130;48.760;9.178;2023-09-19T09:37:23;19.40;99.90
37240;DHT22;23130;48.760;9.178;2023-09-19T09:39:51;19.40;99.90
37240;DHT22;23130;48.760;9.178;2023-09-19T09:45:18;19.80;99.90
37240;DHT22;23130;48.760;9.178;2023-09-19T09:47:59;19.80;99.90
37240;DHT22;23130;48.760;9.178;2023-09-19T09:50:32;19.70;99.90
37240;DHT22;23130;48.760;9.178;2023-09-19T09:53:04;19.80;99.90
37240;DHT22;23130;48.760;9.178;2023-09-19T09:55:56;19.90;99.90
37240;DHT22;23130;48.760;9.178;2023-09-19T09:58:22;20.00;99.90
37240;DHT22;23130;48.760;9.178;2023-09-19T10:00:53;20.00;99.90
37240;DHT22;23130;48.760;9.178;2023-09-19T10:03:33;20.00;99.90
37240;DHT22;23130;48.760;9.178;2023-09-19T10:06:04;20.00;99.90
37240;DHT22;23130;48.760;9.178;2023-09-19T10:11:30;20.00;99.90
37240;DHT22;23130;48.760;9.178;2023-09-19T10:13:57;20.00;99.90
37240;DHT22;23130;48.760;9.178;2023-09-19T10:16:28;20.20;99.90
37240;DHT22;23130;48.760;9.178;2023-09-19T10:18:56;20.10;99.90
37240;DHT22;23130;48.760;9.178;2023-09-19T10:21:24;20.10;99.90
37240;DHT22;23130;48.760;9.178;2023-09-19T10:23:49;20.10;99.90
37240;DHT22;23130;48.760;9.178;2023-09-19T10:26:17;20.20;99.90
37240;DHT22;23130;48.760;9.178;2023-09-19T10:28:46;20.20;99.90
37240;DHT22;23130;48.760;9.178;2023-09-19T10:31:13;20.20;99.90
37240;DHT22;23130;48.760;9.178;2023-09-19T10:33:42;20.20;99.90
37240;DHT22;23130;48.760;9.178;2023-09-19T10:36:09;20.20;99.90
37240;DHT22;23130;48.760;9.178;2023-09-19T10:38:37;20.20;99.90
37240;DHT22;23130;48.760;9.178;2023-09-19T10:41:06;20.30;99.90
37240;DHT22;23130;48.760;9.178;2023-09-19T10:43:33;20.40;99.90
37240;DHT22;23130;48.760;9.178;2023-09-19T10:46:02;20.60;99.90
37240;DHT22;23130;48.760;9.178;2023-09-19T10:48:29;20.70;99.90
37240;DHT22;23130;48.760;9.178;2023-09-19T10:53:25;20.60;99.90
37240;DHT22;23130;48.760;9.178;2023-09-19T10:55:52;20.30;99.90
37240;DHT22;23130;48.760;9.178;2023-09-19T10:58:29;20.30;99.90
37240;DHT22;23130;48.760;9.178;2023-09-19T11:00:59;20.20;99.90
37240;DHT22;23130;48.760;9.178;2023-09-19T11:03:33;20.20;99.90
37240;DHT22;23130;48.760;9.178;2023-09-19T11:06:15;20.30;99.90
37240;DHT22;23130;48.760;9.178;2023-09-19T11:09:01;20.60;99.90
37240;DHT22;23130;48.760;9.178;2023-09-19T11:11:42;20.60;99.90
37240;DHT22;23130;48.760;9.178;2023-09-19T11:22:19;20.80;99.90
37240;DHT22;23130;48.760;9.178;2023-09-19T11:24:47;20.70;99.90
37240;DHT22;23130;48.760;9.178;2023-09-19T11:27:13;20.60;99.90
37240;DHT22;23130;48.760;9.178;2023-09-19T11:29:42;20.60;99.90
37240;DHT22;23130;48.760;9.178;2023-09-19T11:32:07;20.40;99.90
37240;DHT22;23130;48.760;9.178;2023-09-19T11:34:41;20.30;99.90
37240;DHT22;23130;48.760;9.178;2023-09-19T11:42:43;20.20;99.90
37240;DHT22;23130;48.760;9.178;2023-09-19T11:48:00;20.20;99.90
37240;DHT22;23130;48.760;9.178;2023-09-19T11:50:27;20.40;99.90
37240;DHT22;23130;48.760;9.178;2023-09-19T11:52:53;20.60;99.90
37240;DHT22;23130;48.760;9.178;2023-09-19T11:55:20;20.80;99.90
37240;DHT22;23130;48.760;9.178;2023-09-19T11:57:47;20.90;99.90
37240;DHT22;23130;48.760;9.178;2023-09-19T12:00:19;21.00;99.90
37240;DHT22;23130;48.760;9.178;2023-09-19T12:02:46;21.00;99.90
37240;DHT22;23130;48.760;9.178;2023-09-19T12:05:12;21.10;99.90
37240;DHT22;23130;48.760;9.178;2023-09-19T12:07:45;21.10;99.90
37240;DHT22;23130;48.760;9.178;2023-09-19T12:10:13;21.00;99.90
37240;DHT22;23130;48.760;9.178;2023-09-19T12:12:46;21.00;99.90
37240;DHT22;23130;48.760;9.178;2023-09-19T12:15:14;20.90;99.90
37240;DHT22;23130;48.760;9.178;2023-09-19T12:17:40;21.00;99.90
37240;DHT22;23130;48.760;9.178;2023-09-19T12:20:07;20.90;99.90
37240;DHT22;23130;48.760;9.178;2023-09-19T12:22:41;20.90;99.90
37240;DHT22;23130;48.760;9.178;2023-09-19T12:25:09;21.10;99.90
37240;DHT22;23130;48.760;9.178;2023-09-19T12:27:46;21.10;99.90
37240;DHT22;23130;48.760;9.178;2023-09-19T12:30:26;21.30;99.90
37240;DHT22;23130;48.760;9.178;2023-09-19T12:32:52;21.40;99.90
37240;DHT22;23130;48.760;9.178;2023-09-19T12:35:30;21.60;99.90
37240;DHT22;23130;48.760;9.178;2023-09-19T12:37:57;21.90;99.90
37240;DHT22;23130;48.760;9.178;2023-09-19T12:40:23;22.00;99.90
37240;DHT22;23130;48.760;9.178;2023-09-19T12:42:53;22.10;99.90
37240;DHT22;23130;48.760;9.178;2023-09-19T12:45:34;22.20;99.90
37240;DHT22;23130;48.760;9.178;2023-09-19T12:51:04;22.30;99.90
37240;DHT22;23130;48.760;9.178;2023-09-19T12:53:32;22.40;99.90
37240;DHT22;23130;48.760;9.178;2023-09-19T12:56:00;22.40;99.90
37240;DHT22;23130;48.760;9.178;2023-09-19T12:58:25;22.50;99.90
37240;DHT22;23130;48.760;9.178;2023-09-19T13:00:55;22.50;99.90
37240;DHT22;23130;48.760;9.178;2023-09-19T13:05:57;22.60;99.90
37240;DHT22;23130;48.760;9.178;2023-09-19T13:08:26;22.60;99.90
37240;DHT22;23130;48.760;9.178;2023-09-19T13:13:48;22.80;99.90
37240;DHT22;23130;48.760;9.178;2023-09-19T13:16:15;22.90;99.90
37240;DHT22;23130;48.760;9.178;2023-09-19T13:18:54;23.10;99.90
37240;DHT22;23130;48.760;9.178;2023-09-19T13:21:29;23.00;99.90
37240;DHT22;23130;48.760;9.178;2023-09-19T13:23:55;23.00;99.90
37240;DHT22;23130;48.760;9.178;2023-09-19T13:26:27;23.10;99.90
37240;DHT22;23130;48.760;9.178;2023-09-19T13:28:54;23.10;99.90
37240;DHT22;23130;48.760;9.178;2023-09-19T13:31:19;23.00;99.90
37240;DHT22;23130;48.760;9.178;2023-09-19T13:33:45;23.10;99.90
37240;DHT22;23130;48.760;9.178;2023-09-19T13:36:11;23.00;99.90
37240;DHT22;23130;48.760;9.178;2023-09-19T13:38:39;22.80;99.90
37240;DHT22;23130;48.760;9.178;2023-09-19T13:41:04;22.70;99.90
37240;DHT22;23130;48.760;9.178;2023-09-19T13:43:31;22.80;99.90
37240;DHT22;23130;48.760;9.178;2023-09-19T13:45:57;22.80;99.90
37240;DHT22;23130;48.760;9.178;2023-09-19T13:48:23;22.70;99.90
37240;DHT22;23130;48.760;9.178;2023-09-19T13:50:49;22.70;99.90
37240;DHT22;23130;48.760;9.178;2023-09-19T13:53:15;22.60;99.90
37240;DHT22;23130;48.760;9.178;2023-09-19T13:55:42;22.40;99.90
37240;DHT22;23130;48.760;9.178;2023-09-19T13:58:07;22.40;99.90
37240;DHT22;23130;48.760;9.178;2023-09-19T14:00:36;22.30;99.90
37240;DHT22;23130;48.760;9.178;2023-09-19T14:03:01;22.30;99.90
37240;DHT22;23130;48.760;9.178;2023-09-19T14:05:27;22.40;99.90
37240;DHT22;23130;48.760;9.178;2023-09-19T14:07:54;22.40;99.90
37240;DHT22;23130;48.760;9.178;2023-09-19T14:10:24;22.30;99.90
37240;DHT22;23130;48.760;9.178;2023-09-19T14:12:53;22.40;99.90
37240;DHT22;23130;48.760;9.178;2023-09-19T14:15:18;22.40;99.90
37240;DHT22;23130;48.760;9.178;2023-09-19T14:17:43;22.50;99.90
37240;DHT22;23130;48.760;9.178;2023-09-19T14:20:12;22.50;99.90
37240;DHT22;23130;48.760;9.178;2023-09-19T14:22:38;22.40;99.90
37240;DHT22;23130;48.760;9.178;2023-09-19T14:25:04;22.40;99.90
37240;DHT22;23130;48.760;9.178;2023-09-19T14:27:30;22.30;99.90
37240;DHT22;23130;48.760;9.178;2023-09-19T14:29:55;22.40;99.90
37240;DHT22;23130;48.760;9.178;2023-09-19T14:32:23;22.50;99.90
37240;DHT22;23130;48.760;9.178;2023-09-19T14:34:48;22.40;99.90
37240;DHT22;23130;48.760;9.178;2023-09-19T14:37:14;22.40;99.90
37240;DHT22;23130;48.760;9.178;2023-09-19T14:39:41;22.30;99.90
37240;DHT22;23130;48.760;9.178;2023-09-19T14:42:10;22.20;99.90
37240;DHT22;23130;48.760;9.178;2023-09-19T14:44:36;22.30;99.90
37240;DHT22;23130;48.760;9.178;2023-09-19T14:47:03;22.30;99.90
37240;DHT22;23130;48.760;9.178;2023-09-19T14:49:30;22.40;99.90
37240;DHT22;23130;48.760;9.178;2023-09-19T14:51:58;22.40;99.90
37240;DHT22;23130;48.760;9.178;2023-09-19T14:54:23;22.50;99.90
37240;DHT22;23130;48.760;9.178;2023-09-19T14:56:49;22.50;99.90
37240;DHT22;23130;48.760;9.178;2023-09-19T14:59:19;22.50;99.90
37240;DHT22;23130;48.760;9.178;2023-09-19T15:01:45;22.50;99.90
37240;DHT22;23130;48.760;9.178;2023-09-19T15:04:11;22.50;99.90
37240;DHT22;23130;48.760;9.178;2023-09-19T15:06:36;22.40;99.90
37240;DHT22;23130;48.760;9.178;2023-09-19T15:09:02;22.30;99.90
37240;DHT22;23130;48.760;9.178;2023-09-19T15:11:30;22.30;99.90
37240;DHT22;23130;48.760;9.178;2023-09-19T15:13:55;22.20;99.90
37240;DHT22;23130;48.760;9.178;2023-09-19T15:16:22;22.20;99.90
37240;DHT22;23130;48.760;9.178;2023-09-19T15:18:47;22.20;99.90
37240;DHT22;23130;48.760;9.178;2023-09-19T15:21:13;22.10;99.90
37240;DHT22;23130;48.760;9.178;2023-09-19T15:23:40;22.00;99.90
37240;DHT22;23130;48.760;9.178;2023-09-19T15:26:07;22.10;99.90
37240;DHT22;23130;48.760;9.178;2023-09-19T15:28:33;22.10;99.90
37240;DHT22;23130;48.760;9.178;2023-09-19T15:31:00;22.10;99.90
37240;DHT22;23130;48.760;9.178;2023-09-19T15:33:26;22.00;99.90
37240;DHT22;23130;48.760;9.178;2023-09-19T15:36:09;21.90;99.90
37240;DHT22;23130;48.760;9.178;2023-09-19T15:41:37;21.90;99.90
37240;DHT22;23130;48.760;9.178;2023-09-19T15:44:02;21.80;99.90
37240;DHT22;23130;48.760;9.178;2023-09-19T15:46:30;21.80;99.90
37240;DHT22;23130;48.760;9.178;2023-09-19T15:48:56;21.80;99.90
37240;DHT22;23130;48.760;9.178;2023-09-19T15:51:22;21.70;99.90
37240;DHT22;23130;48.760;9.178;2023-09-19T15:53:49;21.70;99.90
37240;DHT22;23130;48.760;9.178;2023-09-19T15:56:16;21.70;99.90
37240;DHT22;23130;48.760;9.178;2023-09-19T15:58:45;21.60;99.90
37240;DHT22;23130;48.760;9.178;2023-09-19T16:01:11;21.60;99.90
37240;DHT22;23130;48.760;9.178;2023-09-19T16:03:37;21.60;99.90
37240;DHT22;23130;48.760;9.178;2023-09-19T16:06:10;21.60;99.90
37240;DHT22;23130;48.760;9.178;2023-09-19T16:08:40;21.60;99.90
37240;DHT22;23130;48.760;9.178;2023-09-19T16:11:05;21.60;99.90
37240;DHT22;23130;48.760;9.178;2023-09-19T16:13:31;21.50;99.90
37240;DHT22;23130;48.760;9.178;2023-09-19T16:15:57;21.50;99.90
37240;DHT22;23130;48.760;9.178;2023-09-19T16:18:23;21.50;99.90
37240;DHT22;23130;48.760;9.178;2023-09-19T16:20:48;21.50;99.90
37240;DHT22;23130;48.760;9.178;2023-09-19T16:23:16;21.40;99.90
37240;DHT22;23130;48.760;9.178;2023-09-19T16:25:41;21.30;99.90
37240;DHT22;23130;48.760;9.178;2023-09-19T16:28:08;21.30;99.90
37240;DHT22;23130;48.760;9.178;2023-09-19T16:30:34;21.20;99.90